createdAt,value
2022-12-01T00:03:45.737Z,75.47
2022-12-01T00:08:50.178Z,70.70
2022-12-01T00:13:52.259Z,66.32
2022-12-01T00:18:55.955Z,69.30
2022-12-01T00:23:58.952Z,69.03
2022-12-01T00:29:01.113Z,82.47
2022-12-01T00:34:08.218Z,71.10
2022-12-01T00:39:13.587Z,73.95
2022-12-01T00:44:15.682Z,75.88
2022-12-01T00:49:19.311Z,75.95
2022-12-01T00:54:21.462Z,70.95
2022-12-01T00:59:23.532Z,72.70
2022-12-01T01:04:29.969Z,71.00
2022-12-01T01:09:32.248Z,65.27
2022-12-01T01:14:34.534Z,63.85
2022-12-01T01:19:38.108Z,68.95
2022-12-01T01:24:40.325Z,72.35
2022-12-01T01:29:42.477Z,72.80
2022-12-01T01:34:46.118Z,65.45
2022-12-01T01:39:48.547Z,67.18
2022-12-01T01:44:54.247Z,68.22
2022-12-01T01:50:02.341Z,71.05
2022-12-01T01:55:05.217Z,76.40
2022-12-01T02:00:10.154Z,67.50
2022-12-01T02:05:17.977Z,76.40
2022-12-01T02:10:21.298Z,70.13
2022-12-01T02:15:30.179Z,67.90
2022-12-01T02:21:12.461Z,72.85
2022-12-01T02:26:33.506Z,60.10
2022-12-01T02:31:43.254Z,65.75
2022-12-01T02:36:52.554Z,67.85
2022-12-01T02:42:04.534Z,77.85
2022-12-01T02:47:12.176Z,66.90
2022-12-01T02:52:15.894Z,73.82
2022-12-01T02:57:18.324Z,68.68
2022-12-01T03:02:32.307Z,81.13
2022-12-01T03:07:51.585Z,80.05
2022-12-01T03:13:07.762Z,69.13
2022-12-01T03:18:28.077Z,66.40
2022-12-01T03:23:39.399Z,68.03
2022-12-01T03:28:47.376Z,67.35
2022-12-01T03:34:05.032Z,76.10
2022-12-01T03:39:15.401Z,72.70
2022-12-01T03:44:22.632Z,69.57
2022-12-01T03:54:40.522Z,64.63
2022-12-01T03:59:44.277Z,81.55
2022-12-01T04:04:47.797Z,74.88
2022-12-01T04:09:50.176Z,68.90
2022-12-01T04:14:52.675Z,66.65
2022-12-01T04:19:56.620Z,78.45
2022-12-01T04:24:58.727Z,90.70
2022-12-01T04:30:00.966Z,86.90
2022-12-01T04:35:05.048Z,75.28
2022-12-01T04:40:08.784Z,91.85
2022-12-01T04:45:11.326Z,73.80
2022-12-01T04:50:15.016Z,78.13
2022-12-01T04:55:17.237Z,75.35
2022-12-01T05:00:19.624Z,65.07
2022-12-01T05:05:23.148Z,74.60
2022-12-01T05:10:25.979Z,74.20
2022-12-01T05:15:28.211Z,65.53
2022-12-01T05:20:31.707Z,65.50
2022-12-01T05:25:34.337Z,69.43
2022-12-01T05:30:36.493Z,63.88
2022-12-01T05:35:40.038Z,74.32
2022-12-01T05:40:42.318Z,69.25
2022-12-01T05:45:44.572Z,67.10
2022-12-01T05:50:48.202Z,68.15
2022-12-01T05:55:52.741Z,65.38
2022-12-01T06:00:54.854Z,59.65
2022-12-01T06:05:58.651Z,60.85
2022-12-01T06:11:00.842Z,62.28
2022-12-01T06:16:05.665Z,59.15
2022-12-01T06:21:09.231Z,60.47
2022-12-01T06:26:11.385Z,73.43
2022-12-01T06:31:13.695Z,65.30
2022-12-01T06:36:17.362Z,65.57
2022-12-01T06:41:19.693Z,68.50
2022-12-01T06:46:21.890Z,67.30
2022-12-01T06:51:25.448Z,59.97
2022-12-01T06:56:27.571Z,66.47
2022-12-01T07:01:30.920Z,69.13
2022-12-01T07:06:34.435Z,62.22
2022-12-01T07:11:36.588Z,64.30
2022-12-01T07:16:38.771Z,69.32
2022-12-01T07:21:42.341Z,72.10
2022-12-01T07:26:44.440Z,69.90
2022-12-01T07:31:46.636Z,55.72
2022-12-01T07:36:50.253Z,59.42
2022-12-01T07:41:52.347Z,72.43
2022-12-01T07:46:54.645Z,60.28
2022-12-01T07:51:58.254Z,56.35
2022-12-01T07:57:00.323Z,53.88
2022-12-01T08:02:02.553Z,52.58
2022-12-01T08:07:06.278Z,56.80
2022-12-01T08:12:08.453Z,56.38
2022-12-01T08:17:10.665Z,51.92
2022-12-01T08:22:14.303Z,48.88
2022-12-01T08:27:16.453Z,48.45
2022-12-01T08:32:18.732Z,57.22
2022-12-01T08:37:22.549Z,49.15
2022-12-01T08:42:24.774Z,53.13
2022-12-01T08:47:28.476Z,47.92
2022-12-01T08:52:33.795Z,48.55
2022-12-01T08:57:36.023Z,53.58
2022-12-01T09:02:38.463Z,51.88
2022-12-01T09:07:42.133Z,52.08
2022-12-01T09:12:44.315Z,62.00
2022-12-01T09:17:46.508Z,51.97
2022-12-01T09:22:50.102Z,57.47
2022-12-01T09:27:52.321Z,56.70
2022-12-01T09:32:54.596Z,63.22
2022-12-01T09:37:58.231Z,57.97
2022-12-01T09:43:03.565Z,68.72
2022-12-01T09:48:07.882Z,68.20
2022-12-01T09:53:18.690Z,70.93
2022-12-01T09:58:24.949Z,78.78
2022-12-01T10:03:35.282Z,84.43
2022-12-01T10:08:45.457Z,75.60
2022-12-01T10:13:47.666Z,80.75
2022-12-01T10:18:57.890Z,85.22
2022-12-01T10:24:20.746Z,85.18
2022-12-01T10:29:30.356Z,76.20
2022-12-01T10:34:36.384Z,87.15
2022-12-01T10:39:42.877Z,86.00
2022-12-01T10:44:46.627Z,90.93
2022-12-01T10:49:49.122Z,95.30
2022-12-01T10:54:52.910Z,90.28
2022-12-01T10:59:58.899Z,85.32
2022-12-01T11:05:03.248Z,86.03
2022-12-01T11:10:19.523Z,90.38
2022-12-01T11:15:24.699Z,84.10
2022-12-01T11:20:34.843Z,79.15
2022-12-01T11:25:38.671Z,74.32
2022-12-01T11:30:40.856Z,66.07
2022-12-01T11:35:48.782Z,71.93
2022-12-01T11:40:54.959Z,81.82
2022-12-01T11:45:59.324Z,70.15
2022-12-01T11:51:06.773Z,79.22
2022-12-01T11:56:21.957Z,77.32
2022-12-01T12:01:39.338Z,72.72
2022-12-01T12:06:49.799Z,79.03
2022-12-01T12:12:02.778Z,69.95
2022-12-01T12:17:44.133Z,69.90
2022-12-01T12:22:56.200Z,70.30
2022-12-01T12:28:14.255Z,72.32
2022-12-01T12:33:53.110Z,62.20
2022-12-01T12:39:13.484Z,73.60
2022-12-01T12:44:45.649Z,77.00
2022-12-01T12:49:53.792Z,66.15
2022-12-01T12:55:00.438Z,74.93
2022-12-01T13:00:13.539Z,75.47
2022-12-01T13:05:21.040Z,60.20
2022-12-01T13:10:29.991Z,67.53
2022-12-01T13:15:35.583Z,70.97
2022-12-01T13:20:38.081Z,59.45
2022-12-01T13:25:41.334Z,67.70
2022-12-01T13:31:01.702Z,63.97
2022-12-01T13:41:34.621Z,60.47
2022-12-01T13:46:56.393Z,60.15
2022-12-01T13:52:26.494Z,58.90
2022-12-01T13:57:30.990Z,51.05
2022-12-01T14:02:36.135Z,69.13
2022-12-01T14:07:38.865Z,55.17
2022-12-01T14:12:46.036Z,58.33
2022-12-01T14:18:00.611Z,56.45
2022-12-01T14:23:11.644Z,61.58
2022-12-01T14:28:16.235Z,52.03
2022-12-01T14:33:46.544Z,52.75
2022-12-01T14:38:50.105Z,54.72
2022-12-01T14:43:57.706Z,57.10
2022-12-01T14:49:03.936Z,60.33
2022-12-01T14:54:12.455Z,60.47
2022-12-01T14:59:19.491Z,60.83
2022-12-01T15:04:23.191Z,61.35
2022-12-01T15:09:33.644Z,64.68
2022-12-01T15:14:38.564Z,58.80
2022-12-01T15:19:42.135Z,50.28
2022-12-01T15:24:45.656Z,54.53
2022-12-01T15:29:48.191Z,51.78
2022-12-01T15:34:54.588Z,56.00
2022-12-01T15:40:43.128Z,53.72
2022-12-01T15:45:23.061Z,50.17
2022-12-01T15:50:31.534Z,49.25
2022-12-01T15:55:36.875Z,56.42
2022-12-01T16:00:39.239Z,53.85
2022-12-01T16:05:44.738Z,57.20
2022-12-01T16:11:07.343Z,53.95
2022-12-01T16:16:41.636Z,50.60
2022-12-01T16:21:47.761Z,59.47
2022-12-01T16:26:53.360Z,48.55
2022-12-01T16:32:20.274Z,51.58
2022-12-01T16:37:21.100Z,49.40
2022-12-01T16:42:23.240Z,52.25
2022-12-01T16:47:25.827Z,57.30
2022-12-01T16:52:44.130Z,51.72
2022-12-01T16:57:46.641Z,51.00
2022-12-01T17:02:48.816Z,50.03
2022-12-01T17:07:52.520Z,52.53
2022-12-01T17:12:54.753Z,50.10
2022-12-01T17:17:56.900Z,54.50
2022-12-01T17:23:00.521Z,48.97
2022-12-01T17:28:02.623Z,51.25
2022-12-01T17:33:04.898Z,50.05
2022-12-01T17:38:08.460Z,44.35
2022-12-01T17:43:10.643Z,40.97
2022-12-01T17:48:12.715Z,47.85
2022-12-01T17:53:16.213Z,43.45
2022-12-01T17:58:18.307Z,49.78
2022-12-01T18:03:20.928Z,38.28
2022-12-01T18:08:25.817Z,51.50
2022-12-01T18:13:28.018Z,53.15
2022-12-01T18:18:30.181Z,45.25
2022-12-01T18:23:33.814Z,50.50
2022-12-01T18:28:36.068Z,48.85
2022-12-01T18:33:40.082Z,42.42
2022-12-01T18:38:44.111Z,47.83
2022-12-01T18:43:47.398Z,51.55
2022-12-01T18:48:51.480Z,54.08
2022-12-01T18:53:56.410Z,55.10
2022-12-01T18:59:00.961Z,50.30
2022-12-01T19:04:04.385Z,47.03
2022-12-01T19:09:09.654Z,46.13
2022-12-01T19:14:14.606Z,47.10
2022-12-01T19:19:16.705Z,47.42
2022-12-01T19:24:20.335Z,48.20
2022-12-01T19:29:22.428Z,41.70
2022-12-01T19:34:24.826Z,46.72
2022-12-01T19:39:28.386Z,43.00
2022-12-01T19:44:30.598Z,51.17
2022-12-01T19:49:32.727Z,45.92
2022-12-01T19:54:36.355Z,42.35
2022-12-01T19:59:38.409Z,48.70
2022-12-01T20:04:40.506Z,53.38
2022-12-01T20:09:48.423Z,44.65
2022-12-01T20:14:52.458Z,47.03
2022-12-01T20:19:54.869Z,43.72
2022-12-01T20:24:58.478Z,51.13
2022-12-01T20:30:00.658Z,46.60
2022-12-01T20:35:02.839Z,47.40
2022-12-01T20:40:08.064Z,46.33
2022-12-01T20:45:10.236Z,43.63
2022-12-01T20:50:12.329Z,42.80
2022-12-01T20:55:15.932Z,38.22
2022-12-01T21:00:18.774Z,42.97
2022-12-01T21:05:20.939Z,36.88
2022-12-01T21:10:24.550Z,36.65
2022-12-01T21:15:28.814Z,37.13
2022-12-01T21:20:33.266Z,36.10
2022-12-01T21:25:38.457Z,34.63
2022-12-01T21:30:42.048Z,32.80
2022-12-01T21:35:44.337Z,31.98
2022-12-01T21:40:47.960Z,38.10
2022-12-01T21:45:52.572Z,35.13
2022-12-01T21:51:00.962Z,34.28
2022-12-01T21:56:04.698Z,36.92
2022-12-01T22:01:16.680Z,37.38
2022-12-01T22:06:31.387Z,36.47
2022-12-01T22:11:35.203Z,35.00
2022-12-01T22:16:40.862Z,41.08
2022-12-01T22:21:46.110Z,39.08
2022-12-01T22:26:52.987Z,40.65
2022-12-01T22:32:21.040Z,37.85
2022-12-01T22:37:25.362Z,36.20
2022-12-01T22:42:31.554Z,40.13
2022-12-01T22:47:34.314Z,45.03
2022-12-01T22:52:36.392Z,42.08
2022-12-01T22:57:39.881Z,40.15
2022-12-01T23:02:42.255Z,47.50
2022-12-01T23:07:44.503Z,48.20
2022-12-01T23:12:50.178Z,46.53
2022-12-01T23:17:52.459Z,39.63
2022-12-01T23:22:55.886Z,41.05
2022-12-01T23:28:03.402Z,44.05
2022-12-01T23:33:20.858Z,43.72
2022-12-01T23:38:30.948Z,44.45
2022-12-01T23:43:38.432Z,37.63
2022-12-01T23:48:43.571Z,42.17
2022-12-01T23:53:46.716Z,37.13
2022-12-01T23:58:51.168Z,40.78
